Time;durP1;ratioP1;P1;durP2;ratioP2;P2;SDS_P1;SDS_P2;PMS_P1;PMS_P2;Temp;Humidity;BMP_temperature;BMP_pressure;BME280_temperature;BME280_humidity;BME280_pressure;Samples;Min_cycle;Max_cycle;Signal;HPM_P1;HPM_P2
2020/12/24 00:00:59;;;;;;;1.67;0.87;;;7.20;99.90;;;;;;5084643;28;20169;-95
2020/12/24 00:03:25;;;;;;;1.60;0.83;;;7.10;99.90;;;;;;5072918;28;20178;-91
2020/12/24 00:05:50;;;;;;;2.20;1.00;;;7.10;99.90;;;;;;5061369;28;20675;-82
2020/12/24 00:08:16;;;;;;;2.90;1.20;;;7.10;99.90;;;;;;5058863;28;20176;-87
2020/12/24 00:10:42;;;;;;;2.00;0.60;;;7.10;99.90;;;;;;5057813;28;20516;-89
2020/12/24 00:13:07;;;;;;;3.83;1.37;;;7.00;99.90;;;;;;5056031;28;20170;-89
2020/12/24 00:15:33;;;;;;;2.53;1.13;;;7.00;99.90;;;;;;5057772;28;20217;-90
2020/12/24 00:17:58;;;;;;;2.43;1.63;;;7.00;99.90;;;;;;5057795;28;20245;-89
2020/12/24 00:20:24;;;;;;;3.37;1.33;;;7.00;99.90;;;;;;5057522;28;20177;-89
2020/12/24 00:22:49;;;;;;;4.00;1.10;;;6.90;99.90;;;;;;5057741;28;20572;-91
2020/12/24 00:25:15;;;;;;;2.83;1.93;;;7.00;99.90;;;;;;5057620;28;20177;-91
2020/12/24 00:27:41;;;;;;;6.50;2.20;;;7.00;99.90;;;;;;5057867;28;20252;-91
2020/12/24 00:30:06;;;;;;;4.00;1.77;;;7.00;99.90;;;;;;5057290;28;20178;-90
2020/12/24 00:32:32;;;;;;;3.67;2.50;;;7.00;99.90;;;;;;5058950;28;20182;-89
2020/12/24 00:34:58;;;;;;;4.23;2.30;;;7.00;99.90;;;;;;5058037;28;20213;-92
2020/12/24 00:37:23;;;;;;;4.10;1.73;;;7.10;99.90;;;;;;5057834;28;20177;-93
2020/12/24 00:39:49;;;;;;;3.60;1.67;;;7.10;99.90;;;;;;5056009;28;20261;-84
2020/12/24 00:42:14;;;;;;;6.07;3.30;;;7.10;99.90;;;;;;5057055;28;20790;-86
2020/12/24 00:44:40;;;;;;;6.40;2.50;;;7.10;99.90;;;;;;5056217;28;20200;-87
2020/12/24 00:47:05;;;;;;;6.67;3.10;;;7.00;99.90;;;;;;5057693;28;20213;-89
2020/12/24 00:49:31;;;;;;;4.97;2.70;;;7.00;99.90;;;;;;5056746;28;20560;-91
2020/12/24 00:52:17;;;;;;;6.77;2.90;;;7.00;99.90;;;;;;5071890;28;20602;-90
2020/12/24 00:54:42;;;;;;;4.83;3.40;;;7.00;99.90;;;;;;5056192;28;20229;-90
2020/12/24 00:57:08;;;;;;;7.00;2.77;;;7.00;99.90;;;;;;5055652;28;20412;-90
2020/12/24 00:59:33;;;;;;;4.73;3.43;;;7.00;99.90;;;;;;5064871;28;20177;-85
2020/12/24 01:01:59;;;;;;;5.13;3.20;;;7.00;99.90;;;;;;5086582;28;20251;-88
2020/12/24 01:04:25;;;;;;;4.50;3.10;;;6.90;99.90;;;;;;5085852;28;20169;-85
2020/12/24 01:06:50;;;;;;;12.27;3.33;;;6.90;99.90;;;;;;5083639;28;20169;-88
2020/12/24 01:09:16;;;;;;;6.77;2.57;;;6.90;99.90;;;;;;5088145;28;20626;-90
2020/12/24 01:11:41;;;;;;;5.13;2.20;;;6.90;99.90;;;;;;5087413;28;20213;-90
2020/12/24 01:14:07;;;;;;;4.93;2.37;;;6.80;99.90;;;;;;5087415;28;20660;-90
2020/12/24 01:16:33;;;;;;;4.20;1.90;;;6.80;99.90;;;;;;5090011;28;20641;-87
2020/12/24 01:19:02;;;;;;;5.67;2.07;;;6.80;99.90;;;;;;5091916;28;20212;-89
2020/12/24 01:21:28;;;;;;;7.57;1.63;;;6.80;99.90;;;;;;5055365;28;20184;-91
2020/12/24 01:23:54;;;;;;;6.03;3.10;;;6.70;99.90;;;;;;5060688;28;20478;-86
2020/12/24 01:26:19;;;;;;;4.57;1.70;;;6.70;99.90;;;;;;5081254;28;20426;-89
2020/12/24 01:28:45;;;;;;;4.90;1.70;;;6.60;99.90;;;;;;5070284;28;20270;-87
2020/12/24 01:31:11;;;;;;;3.70;2.27;;;6.60;99.90;;;;;;5081140;28;20180;-92
2020/12/24 01:33:36;;;;;;;3.23;1.17;;;6.60;99.90;;;;;;5087607;28;20597;-88
2020/12/24 01:36:02;;;;;;;6.20;1.57;;;6.60;99.90;;;;;;5083798;28;20217;-88
2020/12/24 01:38:28;;;;;;;5.03;2.10;;;6.60;99.90;;;;;;5080217;28;20249;-85
2020/12/24 01:41:01;;;;;;;5.03;2.60;;;6.60;99.90;;;;;;5091672;28;20415;-89
2020/12/24 01:43:27;;;;;;;2.03;1.50;;;6.60;99.90;;;;;;5083015;28;20168;-86
2020/12/24 01:45:54;;;;;;;7.40;1.60;;;6.60;99.90;;;;;;5081077;28;20418;-87
2020/12/24 01:48:20;;;;;;;3.27;1.30;;;6.60;99.90;;;;;;5092457;28;20175;-87
2020/12/24 01:50:45;;;;;;;3.00;1.80;;;6.50;99.90;;;;;;5082582;28;20420;-90
2020/12/24 01:53:19;;;;;;;2.40;1.53;;;6.50;99.90;;;;;;5079476;28;20169;-88
2020/12/24 01:55:46;;;;;;;3.30;1.33;;;6.50;99.90;;;;;;5088305;28;20242;-86
2020/12/24 01:58:12;;;;;;;4.50;1.60;;;6.50;99.90;;;;;;5081204;28;20412;-87
2020/12/24 02:00:38;;;;;;;3.30;1.07;;;6.60;99.90;;;;;;5072735;28;20446;-86
2020/12/24 02:03:03;;;;;;;4.00;2.07;;;6.60;99.90;;;;;;5082229;28;20711;-82
2020/12/24 02:05:29;;;;;;;2.90;1.27;;;6.50;99.90;;;;;;5074144;28;20450;-84
2020/12/24 02:07:55;;;;;;;3.80;1.30;;;6.50;99.90;;;;;;5074991;28;20165;-86
2020/12/24 02:10:23;;;;;;;2.70;1.00;;;6.50;99.90;;;;;;5074564;28;20168;-87
2020/12/24 02:12:48;;;;;;;4.10;1.50;;;6.40;99.90;;;;;;5074658;28;20172;-88
2020/12/24 02:15:14;;;;;;;4.63;1.13;;;6.40;99.90;;;;;;5074541;28;20462;-89
2020/12/24 02:17:40;;;;;;;2.63;1.70;;;6.30;99.90;;;;;;5074704;28;20165;-87
2020/12/24 02:20:05;;;;;;;3.50;1.63;;;6.30;99.90;;;;;;5074472;28;20664;-88
2020/12/24 02:22:31;;;;;;;2.50;1.13;;;6.20;99.90;;;;;;5074399;28;20169;-88
2020/12/24 02:24:57;;;;;;;1.80;0.73;;;6.20;99.90;;;;;;5073761;28;20227;-86
2020/12/24 02:27:22;;;;;;;2.60;1.53;;;6.10;99.90;;;;;;5074675;28;20165;-90
2020/12/24 02:29:48;;;;;;;1.83;0.60;;;6.20;99.90;;;;;;5075012;28;20480;-87
2020/12/24 02:32:13;;;;;;;2.97;1.30;;;6.20;99.90;;;;;;5076139;28;20625;-89
2020/12/24 02:34:39;;;;;;;1.53;0.87;;;6.20;99.90;;;;;;5076334;28;20200;-89
2020/12/24 02:37:06;;;;;;;2.30;0.70;;;6.20;99.90;;;;;;5075923;28;20162;-88
2020/12/24 02:39:32;;;;;;;2.77;1.43;;;6.30;99.90;;;;;;5076622;28;20169;-90
2020/12/24 02:41:57;;;;;;;1.77;0.50;;;6.40;99.90;;;;;;5075353;28;20411;-92
2020/12/24 02:44:23;;;;;;;4.47;1.27;;;6.40;99.90;;;;;;5075485;28;20165;-93
2020/12/24 02:46:48;;;;;;;5.23;1.13;;;6.40;99.90;;;;;;5075449;28;20160;-92
2020/12/24 02:49:14;;;;;;;1.80;0.93;;;6.40;99.90;;;;;;5075346;28;20257;-91
2020/12/24 02:51:39;;;;;;;2.17;1.00;;;6.40;99.90;;;;;;5075224;28;20744;-91
2020/12/24 02:54:05;;;;;;;1.60;0.70;;;6.30;99.90;;;;;;5074873;28;20229;-90
2020/12/24 02:56:31;;;;;;;3.07;1.40;;;6.20;99.90;;;;;;5076072;28;20183;-91
2020/12/24 02:58:56;;;;;;;2.23;0.90;;;6.10;99.90;;;;;;5074344;28;20207;-89
2020/12/24 03:01:22;;;;;;;2.87;1.10;;;6.00;99.90;;;;;;5074708;28;20170;-87
2020/12/24 03:03:47;;;;;;;3.10;0.93;;;6.00;99.90;;;;;;5074924;28;20227;-93
2020/12/24 03:06:13;;;;;;;4.60;0.50;;;5.90;99.90;;;;;;5074671;28;20176;-85
2020/12/24 03:08:38;;;;;;;1.87;1.33;;;5.90;99.90;;;;;;5073567;28;20625;-86
2020/12/24 03:11:04;;;;;;;4.47;0.70;;;5.90;99.90;;;;;;5074141;28;20541;-90
2020/12/24 03:13:29;;;;;;;1.90;1.20;;;5.90;99.90;;;;;;5074065;28;20176;-87
2020/12/24 03:15:55;;;;;;;2.53;1.30;;;5.90;99.90;;;;;;5073916;28;20593;-90
2020/12/24 03:18:21;;;;;;;3.63;1.00;;;5.90;99.90;;;;;;5074078;28;20204;-88
2020/12/24 03:20:46;;;;;;;1.53;0.70;;;5.90;99.90;;;;;;5074092;28;20173;-86
2020/12/24 03:23:12;;;;;;;2.87;0.70;;;6.00;99.90;;;;;;5073445;28;20174;-87
2020/12/24 03:25:37;;;;;;;2.80;1.77;;;6.00;99.90;;;;;;5073951;28;20183;-88
2020/12/24 03:28:03;;;;;;;1.70;0.90;;;6.10;99.90;;;;;;5073851;28;20162;-87
2020/12/24 03:30:29;;;;;;;2.40;0.93;;;6.10;99.90;;;;;;5072483;28;20177;-88
2020/12/24 03:32:54;;;;;;;1.60;0.53;;;6.10;99.90;;;;;;5073992;28;20226;-93
2020/12/24 03:35:20;;;;;;;7.57;0.57;;;6.10;99.90;;;;;;5073752;28;20213;-83
2020/12/24 03:37:45;;;;;;;1.10;0.70;;;6.10;99.90;;;;;;5074213;28;20514;-88
2020/12/24 03:40:11;;;;;;;3.10;0.60;;;6.10;99.90;;;;;;5073714;28;20185;-91
2020/12/24 03:42:37;;;;;;;1.97;0.80;;;6.10;99.90;;;;;;5074198;28;20180;-85
2020/12/24 03:45:03;;;;;;;1.20;0.50;;;6.20;99.90;;;;;;5074348;28;20166;-88
2020/12/24 03:47:28;;;;;;;1.10;0.50;;;6.20;99.90;;;;;;5075433;28;20169;-89
2020/12/24 03:49:54;;;;;;;2.73;0.80;;;6.30;99.90;;;;;;5077835;28;20408;-92
2020/12/24 03:52:19;;;;;;;1.70;0.60;;;6.40;99.90;;;;;;5077841;28;20170;-90
2020/12/24 03:54:45;;;;;;;2.73;0.43;;;6.40;99.90;;;;;;5077152;28;20239;-89
2020/12/24 03:57:11;;;;;;;1.57;0.40;;;6.50;99.90;;;;;;5078344;28;20590;-92
2020/12/24 03:59:36;;;;;;;0.93;0.50;;;6.50;99.90;;;;;;5078424;28;20173;-89
2020/12/24 04:02:02;;;;;;;5.37;0.40;;;6.50;99.90;;;;;;5078515;28;20177;-88
2020/12/24 04:04:27;;;;;;;1.30;0.50;;;6.40;99.90;;;;;;5077791;28;20184;-86
2020/12/24 04:06:53;;;;;;;0.90;0.30;;;6.40;99.90;;;;;;5077348;28;20605;-89
2020/12/24 04:09:18;;;;;;;1.17;0.67;;;6.40;99.90;;;;;;5077340;28;20177;-91
2020/12/24 04:11:44;;;;;;;0.60;0.20;;;6.40;99.90;;;;;;5078006;28;20172;-89
2020/12/24 04:14:09;;;;;;;1.07;0.40;;;6.40;99.90;;;;;;5077618;28;20185;-90
2020/12/24 04:16:35;;;;;;;2.37;0.30;;;6.30;99.90;;;;;;5077995;28;20204;-86
2020/12/24 04:19:00;;;;;;;0.77;0.20;;;6.20;99.90;;;;;;5077686;28;20165;-86
2020/12/24 04:21:26;;;;;;;0.87;0.33;;;6.20;99.90;;;;;;5077148;28;20176;-85
2020/12/24 04:23:52;;;;;;;1.17;0.20;;;6.10;99.90;;;;;;5076459;28;20180;-88
2020/12/24 04:26:22;;;;;;;0.93;0.20;;;6.10;99.90;;;;;;5076998;28;20180;-87
2020/12/24 04:28:48;;;;;;;3.60;0.20;;;6.00;99.90;;;;;;5077298;28;20222;-85
2020/12/24 04:31:14;;;;;;;1.60;0.23;;;6.00;99.90;;;;;;5076998;28;20418;-85
2020/12/24 04:33:41;;;;;;;0.77;0.20;;;6.00;99.90;;;;;;5077258;28;20399;-90
2020/12/24 04:36:07;;;;;;;0.60;0.30;;;5.90;99.90;;;;;;5076800;28;20423;-88
2020/12/24 04:38:33;;;;;;;1.27;0.20;;;5.80;99.90;;;;;;5077231;28;20403;-85
2020/12/24 04:40:59;;;;;;;0.80;0.20;;;5.70;99.90;;;;;;5077702;28;20165;-88
2020/12/24 04:43:28;;;;;;;0.40;0.23;;;5.70;99.90;;;;;;5077730;28;20404;-89
2020/12/24 04:45:55;;;;;;;1.17;0.30;;;5.70;99.90;;;;;;5077530;28;20778;-87
2020/12/24 04:48:21;;;;;;;0.70;0.30;;;5.70;99.90;;;;;;5076275;28;20415;-87
2020/12/24 04:50:54;;;;;;;0.80;0.33;;;5.70;99.90;;;;;;5076371;28;20476;-89
2020/12/24 04:53:19;;;;;;;3.53;0.33;;;5.70;99.90;;;;;;5076078;28;20449;-81
2020/12/24 04:55:45;;;;;;;0.60;0.30;;;5.80;99.90;;;;;;5091521;28;20470;-86
2020/12/24 04:58:12;;;;;;;0.50;0.20;;;5.80;99.90;;;;;;5087297;28;20178;-88
2020/12/24 05:00:39;;;;;;;1.07;0.30;;;5.70;99.90;;;;;;5075876;28;20403;-88
2020/12/24 05:03:09;;;;;;;1.43;0.73;;;5.70;99.90;;;;;;5058963;28;20934;-83
2020/12/24 05:05:39;;;;;;;2.00;0.40;;;5.70;99.90;;;;;;5076304;28;21215;-89
2020/12/24 05:08:06;;;;;;;0.63;0.30;;;5.70;99.90;;;;;;5076105;28;20407;-86
2020/12/24 05:10:33;;;;;;;0.53;0.20;;;5.70;99.90;;;;;;5076240;28;20970;-89
2020/12/24 05:13:00;;;;;;;0.80;0.40;;;5.60;99.90;;;;;;5076547;28;20404;-89
2020/12/24 05:15:30;;;;;;;0.50;0.20;;;5.60;99.90;;;;;;5076804;28;20467;-90
2020/12/24 05:18:18;;;;;;;0.53;0.30;;;5.60;99.90;;;;;;5077132;28;20407;-88
2020/12/24 05:20:44;;;;;;;0.40;0.30;;;5.50;99.90;;;;;;5077000;28;20404;-89
2020/12/24 05:23:12;;;;;;;0.60;0.20;;;5.50;99.90;;;;;;5075787;28;20403;-88
2020/12/24 05:25:37;;;;;;;3.73;0.20;;;5.40;99.90;;;;;;5075690;28;20411;-88
2020/12/24 05:28:03;;;;;;;0.30;0.20;;;5.40;99.90;;;;;;5075889;28;20415;-88
2020/12/24 05:30:31;;;;;;;0.40;0.20;;;5.30;99.90;;;;;;5075491;28;20579;-85
2020/12/24 05:32:56;;;;;;;0.47;0.20;;;5.30;99.90;;;;;;5075392;28;20636;-88
2020/12/24 05:35:26;;;;;;;0.37;0.20;;;5.20;99.90;;;;;;5075506;28;20506;-90
2020/12/24 05:37:53;;;;;;;1.20;0.30;;;5.10;99.90;;;;;;5075341;28;20242;-83
2020/12/24 05:40:27;;;;;;;0.70;0.23;;;5.00;99.90;;;;;;5075493;28;20426;-89
2020/12/24 05:42:58;;;;;;;0.40;0.20;;;5.00;99.90;;;;;;5075437;28;20418;-88
2020/12/24 05:45:27;;;;;;;0.60;0.27;;;4.90;99.90;;;;;;5075605;28;20956;-90
2020/12/24 05:48:15;;;;;;;0.50;0.20;;;4.90;99.90;;;;;;5075948;28;20445;-88
2020/12/24 05:50:42;;;;;;;0.77;0.47;;;4.80;99.90;;;;;;5075666;28;20415;-88
2020/12/24 05:53:14;;;;;;;0.70;0.43;;;4.80;99.90;;;;;;5075149;28;20433;-87
2020/12/24 05:55:41;;;;;;;0.50;0.20;;;4.80;99.90;;;;;;5075342;28;20470;-91
2020/12/24 05:58:08;;;;;;;0.30;0.20;;;4.80;99.90;;;;;;5075162;28;20745;-89
2020/12/24 06:00:39;;;;;;;0.47;0.30;;;4.80;99.90;;;;;;5074988;28;20511;-88
2020/12/24 06:03:10;;;;;;;1.23;0.20;;;4.70;99.90;;;;;;5075594;28;20440;-89
2020/12/24 06:05:57;;;;;;;0.43;0.30;;;4.70;99.90;;;;;;5076317;28;20923;-88
2020/12/24 06:08:28;;;;;;;0.70;0.50;;;4.70;99.90;;;;;;5074540;28;20414;-88
2020/12/24 06:11:07;;;;;;;0.50;0.30;;;4.70;99.90;;;;;;5074024;28;20400;-88
2020/12/24 06:13:45;;;;;;;0.30;0.20;;;4.70;99.90;;;;;;5074978;28;20422;-90
2020/12/24 06:16:12;;;;;;;0.97;0.30;;;4.60;99.90;;;;;;5074771;28;20787;-90
2020/12/24 06:18:41;;;;;;;0.80;0.30;;;4.50;99.90;;;;;;5074503;28;20873;-88
2020/12/24 06:21:28;;;;;;;0.40;0.20;;;4.50;99.90;;;;;;5074994;28;20411;-90
2020/12/24 06:23:59;;;;;;;0.70;0.30;;;4.40;99.90;;;;;;5075266;28;20927;-91
2020/12/24 06:26:31;;;;;;;0.53;0.20;;;4.40;99.90;;;;;;5075873;28;20400;-92
2020/12/24 06:29:01;;;;;;;1.13;0.20;;;4.40;99.90;;;;;;5077658;28;20412;-90
2020/12/24 06:31:27;;;;;;;0.80;0.40;;;4.30;99.90;;;;;;5075554;28;20817;-90
2020/12/24 06:33:53;;;;;;;0.60;0.30;;;4.20;99.90;;;;;;5075709;28;20439;-91
2020/12/24 06:36:37;;;;;;;0.47;0.20;;;4.20;99.90;;;;;;5075072;28;20439;-91
2020/12/24 06:39:04;;;;;;;0.30;0.20;;;4.10;99.90;;;;;;5075116;28;20511;-91
2020/12/24 06:41:34;;;;;;;0.63;0.30;;;4.10;99.90;;;;;;5075687;28;20402;-90
2020/12/24 06:44:00;;;;;;;0.60;0.47;;;4.00;99.90;;;;;;5075196;28;20417;-90
2020/12/24 06:46:26;;;;;;;0.30;0.20;;;4.00;99.90;;;;;;5075422;28;20505;-91
2020/12/24 06:49:02;;;;;;;0.40;0.40;;;4.00;99.90;;;;;;5076122;28;20165;-92
2020/12/24 06:51:47;;;;;;;0.30;0.20;;;4.00;99.90;;;;;;5076707;28;20175;-91
2020/12/24 06:54:20;;;;;;;0.87;0.30;;;4.00;99.90;;;;;;5076171;28;20506;-89
2020/12/24 06:56:46;;;;;;;1.17;0.20;;;3.90;99.90;;;;;;5075068;28;20445;-86
2020/12/24 06:59:19;;;;;;;0.50;0.27;;;3.90;99.90;;;;;;5076737;28;20410;-92
2020/12/24 07:02:02;;;;;;;0.50;0.37;;;3.90;99.90;;;;;;5075794;28;20187;-89
2020/12/24 07:04:38;;;;;;;1.20;0.20;;;3.90;99.90;;;;;;5075589;28;20397;-92
2020/12/24 07:07:04;;;;;;;0.60;0.40;;;3.90;99.90;;;;;;5075378;28;20504;-91
2020/12/24 07:09:30;;;;;;;0.60;0.20;;;3.90;99.90;;;;;;5075063;28;20428;-89
2020/12/24 07:11:55;;;;;;;0.60;0.20;;;3.90;99.90;;;;;;5074589;28;20415;-91
2020/12/24 07:14:24;;;;;;;0.40;0.30;;;3.90;99.90;;;;;;5075020;28;20687;-91
2020/12/24 07:16:51;;;;;;;0.60;0.30;;;3.90;99.90;;;;;;5075103;28;20177;-90
2020/12/24 07:19:18;;;;;;;0.70;0.43;;;3.90;99.90;;;;;;5075049;28;20442;-91
2020/12/24 07:21:47;;;;;;;0.87;0.87;;;3.90;99.90;;;;;;5075581;28;20422;-90
2020/12/24 07:24:14;;;;;;;0.50;0.30;;;3.90;99.90;;;;;;5059963;28;20419;-86
2020/12/24 07:26:42;;;;;;;0.70;0.50;;;3.90;99.90;;;;;;5059221;28;20411;-86
2020/12/24 07:29:11;;;;;;;0.80;0.50;;;3.90;99.90;;;;;;5058650;28;20412;-89
2020/12/24 07:31:38;;;;;;;1.23;0.67;;;3.90;99.90;;;;;;5076553;28;20419;-87
2020/12/24 07:34:04;;;;;;;1.17;0.90;;;3.90;99.90;;;;;;5078168;28;20514;-84
2020/12/24 07:36:30;;;;;;;0.90;0.40;;;4.00;99.90;;;;;;5079415;28;20418;-86
2020/12/24 07:38:56;;;;;;;1.17;0.70;;;4.00;99.90;;;;;;5079943;28;20425;-84
2020/12/24 07:41:22;;;;;;;1.40;0.60;;;4.00;99.90;;;;;;5084926;28;20469;-88
2020/12/24 07:43:48;;;;;;;0.80;0.30;;;4.10;99.90;;;;;;5085681;28;20252;-86
2020/12/24 07:46:16;;;;;;;1.13;0.70;;;4.10;99.90;;;;;;5083630;28;20165;-92
2020/12/24 07:48:43;;;;;;;0.80;0.50;;;4.10;99.90;;;;;;5078220;28;20164;-88
2020/12/24 07:51:09;;;;;;;0.90;0.77;;;4.20;99.90;;;;;;5088724;28;20411;-78
2020/12/24 07:53:35;;;;;;;1.17;0.60;;;4.20;99.90;;;;;;5095948;28;20437;-81
2020/12/24 07:56:06;;;;;;;1.23;0.83;;;4.20;99.90;;;;;;5085631;28;20890;-89
2020/12/24 07:58:31;;;;;;;1.17;0.60;;;4.20;99.90;;;;;;5078570;28;20411;-91
2020/12/24 08:01:02;;;;;;;1.20;0.60;;;4.30;99.90;;;;;;5079881;28;20425;-86
2020/12/24 08:03:28;;;;;;;1.50;0.23;;;4.30;99.90;;;;;;5079386;28;20515;-85
2020/12/24 08:06:02;;;;;;;1.43;0.30;;;4.30;99.90;;;;;;5080512;28;20493;-91
2020/12/24 08:08:30;;;;;;;0.70;0.53;;;4.40;99.90;;;;;;5084193;28;20529;-89
2020/12/24 08:10:56;;;;;;;2.30;0.70;;;4.40;99.90;;;;;;5078740;28;20414;-88
2020/12/24 08:13:22;;;;;;;4.33;0.90;;;4.50;99.90;;;;;;5079390;28;20418;-85
2020/12/24 08:15:50;;;;;;;0.70;0.30;;;4.50;99.90;;;;;;5079275;28;20858;-89
2020/12/24 08:18:22;;;;;;;1.20;0.70;;;4.60;99.90;;;;;;5077199;28;20177;-90
2020/12/24 08:21:07;;;;;;;4.30;0.93;;;4.70;99.90;;;;;;5078148;28;20418;-87
2020/12/24 08:23:50;;;;;;;2.30;0.80;;;4.70;99.90;;;;;;5077458;28;20423;-87
2020/12/24 08:26:16;;;;;;;1.43;0.87;;;4.70;99.90;;;;;;5077817;28;20414;-87
2020/12/24 08:28:54;;;;;;;1.80;0.57;;;4.60;99.90;;;;;;5076282;28;20430;-89
2020/12/24 08:31:21;;;;;;;4.43;1.00;;;4.70;99.90;;;;;;5077934;28;20772;-91
2020/12/24 08:33:52;;;;;;;1.03;0.70;;;4.70;99.90;;;;;;5076438;28;20465;-92
2020/12/24 08:36:26;;;;;;;1.10;0.73;;;4.80;99.90;;;;;;5077309;28;20485;-88
2020/12/24 08:39:07;;;;;;;1.57;0.93;;;4.80;99.90;;;;;;5075942;28;20467;-83
2020/12/24 08:41:43;;;;;;;2.00;0.73;;;4.90;99.90;;;;;;5075554;28;20407;-85
2020/12/24 08:44:10;;;;;;;0.70;0.40;;;4.90;99.90;;;;;;5076254;28;20418;-91
2020/12/24 08:46:36;;;;;;;6.10;0.97;;;5.00;99.90;;;;;;5076355;28;20419;-89
2020/12/24 08:49:24;;;;;;;1.63;1.03;;;5.10;99.90;;;;;;5079156;28;20854;-92
2020/12/24 08:52:06;;;;;;;1.63;0.93;;;5.10;99.90;;;;;;5080490;28;20420;-93
2020/12/24 08:54:31;;;;;;;4.37;0.70;;;5.10;99.90;;;;;;5079358;28;20479;-92
2020/12/24 08:56:57;;;;;;;3.10;1.03;;;5.10;99.90;;;;;;5078858;28;20461;-94
2020/12/24 08:59:23;;;;;;;1.73;0.73;;;5.20;99.90;;;;;;5080721;28;20192;-93
2020/12/24 09:01:48;;;;;;;2.03;0.97;;;5.20;99.90;;;;;;5079952;28;20214;-94
2020/12/24 09:04:16;;;;;;;2.80;0.80;;;5.30;99.90;;;;;;5079556;28;20285;-92
2020/12/24 09:06:43;;;;;;;2.20;0.77;;;5.20;99.90;;;;;;5078161;28;20180;-91
2020/12/24 09:09:22;;;;;;;2.33;0.80;;;5.30;99.90;;;;;;5078554;28;20422;-94
2020/12/24 09:11:49;;;;;;;2.80;0.80;;;5.40;99.90;;;;;;5081158;28;20486;-92
2020/12/24 09:14:20;;;;;;;3.90;2.10;;;5.40;99.90;;;;;;5063933;28;20899;-94
2020/12/24 09:16:57;;;;;;;2.47;0.97;;;5.40;99.90;;;;;;5081547;28;20494;-92
2020/12/24 09:19:23;;;;;;;4.80;1.53;;;5.50;99.90;;;;;;5079587;28;20415;-93
2020/12/24 09:21:57;;;;;;;6.80;1.07;;;5.50;99.90;;;;;;5075936;28;20464;-89
2020/12/24 09:24:24;;;;;;;5.30;1.93;;;5.60;99.90;;;;;;5075676;28;20494;-88
2020/12/24 09:26:53;;;;;;;2.90;1.30;;;5.60;99.90;;;;;;5075699;28;20415;-90
2020/12/24 09:29:20;;;;;;;3.70;1.27;;;5.70;99.90;;;;;;5078064;28;20412;-91
2020/12/24 09:31:59;;;;;;;4.70;1.73;;;5.70;99.90;;;;;;5076449;28;20411;-89
2020/12/24 09:34:28;;;;;;;5.97;1.40;;;5.70;99.90;;;;;;5076208;28;20493;-88
2020/12/24 09:36:54;;;;;;;3.17;1.40;;;5.70;99.90;;;;;;5075442;28;20467;-85
2020/12/24 09:39:20;;;;;;;1.83;0.93;;;5.70;99.90;;;;;;5077084;28;20404;-90
2020/12/24 09:41:47;;;;;;;2.10;0.63;;;5.80;99.90;;;;;;5077316;28;20424;-90
2020/12/24 09:44:18;;;;;;;2.50;1.20;;;5.80;99.90;;;;;;5075658;28;20259;-90
2020/12/24 09:46:46;;;;;;;5.50;1.93;;;5.80;99.90;;;;;;5075606;28;20413;-89
2020/12/24 09:49:11;;;;;;;7.63;2.07;;;5.80;99.90;;;;;;5075390;28;21041;-91
2020/12/24 09:51:37;;;;;;;2.60;1.33;;;5.90;99.90;;;;;;5075627;28;20404;-87
2020/12/24 09:54:04;;;;;;;3.03;1.40;;;5.90;99.90;;;;;;5075582;28;20234;-91
2020/12/24 09:56:30;;;;;;;2.20;0.70;;;6.00;99.90;;;;;;5076424;28;20167;-90
2020/12/24 09:58:56;;;;;;;2.00;0.87;;;5.90;99.90;;;;;;5075175;28;20470;-90
2020/12/24 10:01:21;;;;;;;2.83;1.03;;;5.90;99.90;;;;;;5075280;28;20407;-91
2020/12/24 10:03:47;;;;;;;4.90;1.10;;;5.90;99.90;;;;;;5075040;28;20579;-82
2020/12/24 10:06:14;;;;;;;4.73;1.53;;;5.90;99.90;;;;;;5075021;28;20161;-89
2020/12/24 10:08:39;;;;;;;3.17;2.33;;;5.90;99.90;;;;;;5074638;28;20770;-87
2020/12/24 10:11:13;;;;;;;5.50;2.93;;;5.90;99.90;;;;;;5074937;28;20418;-88
2020/12/24 10:13:39;;;;;;;5.67;2.10;;;6.00;99.90;;;;;;5074809;28;20204;-91
2020/12/24 10:16:05;;;;;;;4.37;2.13;;;6.10;99.90;;;;;;5074485;28;20455;-89
2020/12/24 10:18:31;;;;;;;4.93;2.20;;;6.20;99.90;;;;;;5074837;28;20443;-89
2020/12/24 10:20:56;;;;;;;2.97;1.20;;;6.30;99.90;;;;;;5074881;28;20169;-90
2020/12/24 10:23:22;;;;;;;3.00;2.07;;;6.40;99.90;;;;;;5072990;28;20648;-88
2020/12/24 10:25:47;;;;;;;5.40;2.00;;;6.60;99.90;;;;;;5074231;28;20173;-88
2020/12/24 10:28:13;;;;;;;3.90;1.50;;;6.60;99.90;;;;;;5075223;28;20165;-88
2020/12/24 10:30:39;;;;;;;2.70;1.80;;;6.70;99.90;;;;;;5074469;28;20180;-88
2020/12/24 10:33:04;;;;;;;2.60;1.27;;;6.80;99.90;;;;;;5074657;28;20173;-90
2020/12/24 10:35:30;;;;;;;3.27;1.87;;;7.00;99.90;;;;;;5075620;28;20291;-84
2020/12/24 10:37:56;;;;;;;4.57;2.10;;;7.10;99.90;;;;;;5074687;28;20195;-82
2020/12/24 10:40:21;;;;;;;3.90;2.10;;;7.10;99.90;;;;;;5074653;28;20172;-89
2020/12/24 10:42:48;;;;;;;3.97;1.97;;;7.00;99.90;;;;;;5073794;28;20169;-91
2020/12/24 10:45:14;;;;;;;4.77;2.07;;;7.00;99.90;;;;;;5073947;28;20686;-82
2020/12/24 10:47:40;;;;;;;3.60;2.57;;;6.90;99.90;;;;;;5077979;28;20437;-85
2020/12/24 10:50:06;;;;;;;3.83;1.60;;;6.90;99.90;;;;;;5072263;28;20431;-81
2020/12/24 10:52:32;;;;;;;3.93;2.13;;;6.90;99.90;;;;;;5069389;28;20410;-81
2020/12/24 10:54:57;;;;;;;3.37;2.37;;;6.80;99.90;;;;;;5070695;28;20478;-83
2020/12/24 10:57:23;;;;;;;4.00;2.63;;;6.80;99.90;;;;;;5070493;28;20403;-81
2020/12/24 10:59:49;;;;;;;6.17;2.97;;;6.80;99.90;;;;;;5070996;28;20252;-84
2020/12/24 11:02:14;;;;;;;4.27;2.67;;;6.70;99.90;;;;;;5071676;28;20655;-86
2020/12/24 11:04:40;;;;;;;6.30;3.03;;;6.80;99.90;;;;;;5071616;28;20176;-87
2020/12/24 11:07:06;;;;;;;5.40;3.30;;;6.80;99.90;;;;;;5069908;28;20259;-87
2020/12/24 11:09:31;;;;;;;8.83;4.37;;;6.70;99.90;;;;;;5050415;28;20241;-88
2020/12/24 11:11:58;;;;;;;6.50;4.57;;;6.60;99.90;;;;;;5052902;28;20221;-89
2020/12/24 11:14:24;;;;;;;11.57;4.97;;;6.60;99.90;;;;;;5051057;28;20685;-88
2020/12/24 11:16:50;;;;;;;7.30;4.40;;;6.50;99.90;;;;;;5053020;28;20411;-88
2020/12/24 11:19:15;;;;;;;7.57;4.00;;;6.50;99.90;;;;;;5075036;28;20426;-91
2020/12/24 11:21:41;;;;;;;10.20;5.47;;;6.50;99.90;;;;;;5090392;28;20176;-88
2020/12/24 11:24:07;;;;;;;8.73;4.53;;;6.40;99.90;;;;;;5061231;28;20205;-92
2020/12/24 11:26:37;;;;;;;9.83;5.70;;;6.50;99.90;;;;;;5089958;28;20442;-91
2020/12/24 11:29:05;;;;;;;9.60;5.30;;;6.50;99.90;;;;;;5087723;28;20204;-85
2020/12/24 11:31:32;;;;;;;11.93;7.03;;;6.40;99.90;;;;;;5072255;28;20473;-82
2020/12/24 11:33:58;;;;;;;12.27;6.00;;;6.50;99.90;;;;;;5072300;28;20438;-83
2020/12/24 11:36:25;;;;;;;9.73;4.70;;;6.50;99.90;;;;;;5072207;28;20415;-83
2020/12/24 11:38:52;;;;;;;13.23;6.10;;;6.50;99.90;;;;;;5071754;28;20750;-85
2020/12/24 11:41:24;;;;;;;14.63;7.53;;;6.60;99.90;;;;;;5072113;28;20919;-83
2020/12/24 11:43:51;;;;;;;11.83;6.73;;;6.60;99.90;;;;;;5072340;28;20407;-83
2020/12/24 11:46:18;;;;;;;10.67;7.10;;;6.60;99.90;;;;;;5072365;28;20420;-83
2020/12/24 11:48:45;;;;;;;17.37;9.20;;;6.60;99.90;;;;;;5072352;28;20403;-82
2020/12/24 11:51:13;;;;;;;22.53;8.40;;;6.70;99.90;;;;;;5072022;28;20426;-83
2020/12/24 11:53:40;;;;;;;16.87;8.47;;;6.70;99.90;;;;;;5071634;28;20417;-82
2020/12/24 11:56:06;;;;;;;15.13;8.23;;;6.70;99.90;;;;;;5072013;28;20474;-83
2020/12/24 11:58:32;;;;;;;16.23;8.50;;;6.70;99.90;;;;;;5070863;28;20411;-83
2020/12/24 12:00:58;;;;;;;16.43;8.43;;;6.80;99.90;;;;;;5071962;28;20883;-82
2020/12/24 12:03:24;;;;;;;18.23;9.63;;;6.80;99.90;;;;;;5072010;28;20260;-82
2020/12/24 12:05:50;;;;;;;15.70;8.07;;;7.00;99.90;;;;;;5071953;28;20411;-83
2020/12/24 12:08:17;;;;;;;16.83;8.80;;;7.00;99.90;;;;;;5072591;28;20407;-83
2020/12/24 12:10:43;;;;;;;15.60;9.63;;;6.90;99.90;;;;;;5075505;28;20222;-82
2020/12/24 12:13:09;;;;;;;21.73;10.60;;;7.00;99.90;;;;;;5075430;28;20407;-83
2020/12/24 12:15:34;;;;;;;17.37;8.73;;;7.10;99.90;;;;;;5075314;28;20492;-82
2020/12/24 12:18:00;;;;;;;13.93;8.90;;;7.20;99.90;;;;;;5075396;28;20165;-82
2020/12/24 12:20:26;;;;;;;17.40;8.80;;;7.30;99.90;;;;;;5075372;28;20641;-83
2020/12/24 12:22:52;;;;;;;16.97;9.60;;;7.40;99.90;;;;;;5074991;28;20169;-83
2020/12/24 12:25:18;;;;;;;15.87;9.07;;;7.40;99.90;;;;;;5075155;28;20948;-83
2020/12/24 12:27:45;;;;;;;13.40;7.97;;;7.50;99.90;;;;;;5073651;28;20451;-83
2020/12/24 12:30:10;;;;;;;13.07;8.40;;;7.50;99.90;;;;;;5075234;28;20430;-82
2020/12/24 12:32:36;;;;;;;14.07;7.60;;;7.50;99.90;;;;;;5074608;28;20411;-82
2020/12/24 12:35:01;;;;;;;17.10;8.27;;;7.50;99.90;;;;;;5073873;28;20215;-82
2020/12/24 12:37:27;;;;;;;12.90;7.70;;;7.50;99.90;;;;;;5074633;28;20625;-82
2020/12/24 12:39:53;;;;;;;18.60;9.20;;;7.50;99.90;;;;;;5072765;28;20547;-82
2020/12/24 12:42:18;;;;;;;14.73;8.00;;;7.50;99.90;;;;;;5075067;28;20188;-82
2020/12/24 12:44:44;;;;;;;12.87;6.73;;;7.50;99.90;;;;;;5074437;28;20181;-82
2020/12/24 12:47:10;;;;;;;15.63;7.80;;;7.50;99.90;;;;;;5074860;28;20172;-82
2020/12/24 12:49:36;;;;;;;12.43;5.90;;;7.40;99.90;;;;;;5074722;28;20165;-82
2020/12/24 12:52:03;;;;;;;12.23;7.30;;;7.40;99.90;;;;;;5074492;28;20927;-82
2020/12/24 12:54:28;;;;;;;14.23;8.00;;;7.50;99.90;;;;;;5074492;28;20231;-82
2020/12/24 12:56:54;;;;;;;11.97;7.17;;;7.60;99.90;;;;;;5074713;28;20419;-82